Time;durP1;ratioP1;P1;durP2;ratioP2;P2;SDS_P1;SDS_P2;PMS_P1;PMS_P2;Temp;Humidity;BMP_temperature;BMP_pressure;BME280_temperature;BME280_humidity;BME280_pressure;Samples;Min_cycle;Max_cycle;Signal;HPM_P1;HPM_P2
2022/05/18 00:03:08;;;;;;;;;31.33;26.00;;;;;;;;6490929;46;8844;-58
2022/05/18 00:09:10;;;;;;;;;28.00;25.00;;;;;;;;6490970;31;8921;-57
2022/05/18 00:15:17;;;;;;;;;22.67;22.67;;;;;;;;6492036;39;8919;-58
2022/05/18 00:21:19;;;;;;;;;26.00;26.00;;;;;;;;6490891;39;8898;-57
2022/05/18 00:27:21;;;;;;;;;34.00;31.00;;;;;;;;6490892;46;8888;-57
2022/05/18 00:33:24;;;;;;;;;29.67;28.00;;;;;;;;6490838;31;8932;-57
2022/05/18 00:39:26;;;;;;;;;31.00;27.33;;;;;;;;6491756;31;8923;-58
2022/05/18 00:45:28;;;;;;;;;25.33;23.00;;;;;;;;6490646;39;8938;-56
2022/05/18 00:51:39;;;;;;;;;19.67;19.33;;;;;;;;6489769;46;8946;-57
2022/05/18 00:58:07;;;;;;;;;19.67;19.67;;;;;;;;6490297;39;8882;-57
2022/05/18 01:04:13;;;;;;;;;16.67;16.00;;;;;;;;6490398;39;8868;-58
2022/05/18 01:10:15;;;;;;;;;20.00;17.67;;;;;;;;6490584;31;9060;-58
2022/05/18 01:16:19;;;;;;;;;20.33;20.33;;;;;;;;6490835;39;9500;-58
2022/05/18 01:22:40;;;;;;;;;20.33;20.33;;;;;;;;6490424;39;9466;-58
2022/05/18 01:28:52;;;;;;;;;13.00;13.00;;;;;;;;6490117;46;8876;-58
2022/05/18 01:34:54;;;;;;;;;13.00;13.00;;;;;;;;6490002;46;8908;-57
2022/05/18 01:41:09;;;;;;;;;14.67;13.33;;;;;;;;6490588;46;8876;-57
2022/05/18 01:47:11;;;;;;;;;13.67;12.00;;;;;;;;6489392;39;8992;-56
2022/05/18 01:53:16;;;;;;;;;6.67;6.00;;;;;;;;6490112;47;8930;-57
2022/05/18 01:59:18;;;;;;;;;11.75;9.50;;;;;;;;6490510;39;8849;-57
2022/05/18 02:05:20;;;;;;;;;10.75;10.00;;;;;;;;6489756;47;8867;-57
2022/05/18 02:11:23;;;;;;;;;6.25;6.25;;;;;;;;6490007;39;8906;-58
2022/05/18 02:17:26;;;;;;;;;11.75;10.25;;;;;;;;6491272;31;8943;-58
2022/05/18 02:23:29;;;;;;;;;11.50;11.50;;;;;;;;6489647;46;8854;-56
2022/05/18 02:29:31;;;;;;;;;15.25;15.00;;;;;;;;6489786;39;8932;-57
2022/05/18 02:35:33;;;;;;;;;12.25;12.25;;;;;;;;6489181;31;8862;-57
2022/05/18 02:41:37;;;;;;;;;15.25;12.50;;;;;;;;6491465;39;8950;-58
2022/05/18 02:47:39;;;;;;;;;16.00;14.75;;;;;;;;6491504;39;9534;-56
2022/05/18 02:53:44;;;;;;;;;14.50;14.25;;;;;;;;6491847;39;8935;-57
2022/05/18 02:59:47;;;;;;;;;11.25;11.25;;;;;;;;6492104;39;8873;-58
2022/05/18 03:05:49;;;;;;;;;17.00;15.75;;;;;;;;6490950;46;8888;-56
2022/05/18 03:11:55;;;;;;;;;15.75;15.00;;;;;;;;6491326;46;8869;-56
2022/05/18 03:17:58;;;;;;;;;13.75;13.75;;;;;;;;6490963;46;8864;-57
2022/05/18 03:24:00;;;;;;;;;15.00;12.75;;;;;;;;6491295;39;8916;-57
2022/05/18 03:30:03;;;;;;;;;14.00;14.00;;;;;;;;6491556;39;9495;-56
2022/05/18 03:36:08;;;;;;;;;17.50;15.75;;;;;;;;6491807;39;8877;-57
2022/05/18 03:42:10;;;;;;;;;14.75;13.00;;;;;;;;6491680;39;9776;-56
2022/05/18 03:48:15;;;;;;;;;18.75;18.75;;;;;;;;6491833;31;9800;-57
2022/05/18 03:54:18;;;;;;;;;14.25;13.75;;;;;;;;6490712;46;8872;-56
2022/05/18 04:07:05;;;;;;;;;14.00;10.75;;;;;;;;6484354;46;9059;-57
2022/05/18 04:13:12;;;;;;;;;9.25;9.00;;;;;;;;6491992;39;9565;-58
